createdAt,value
2022-11-06T00:02:23.206Z,84.49
2022-11-06T00:05:45.921Z,84.27
2022-11-06T00:08:48.553Z,85.05
2022-11-06T00:11:52.824Z,84.71
2022-11-06T00:14:55.267Z,84.89
2022-11-06T00:17:57.627Z,84.87
2022-11-06T00:21:00.269Z,84.79
2022-11-06T00:24:04.841Z,85.00
2022-11-06T00:27:07.206Z,85.45
2022-11-06T00:30:14.032Z,85.31
2022-11-06T00:33:16.384Z,85.22
2022-11-06T00:36:21.098Z,85.61
2022-11-06T00:39:23.726Z,85.41
2022-11-06T00:42:26.123Z,85.74
2022-11-06T00:45:28.509Z,85.28
2022-11-06T00:48:30.918Z,85.41
2022-11-06T00:51:35.862Z,85.23
2022-11-06T00:54:38.230Z,85.53
2022-11-06T00:57:40.562Z,85.01
2022-11-06T01:00:42.994Z,85.10
2022-11-06T01:03:47.885Z,84.85
2022-11-06T01:06:53.118Z,84.58
2022-11-06T01:09:55.698Z,84.66
2022-11-06T01:12:58.045Z,84.62
2022-11-06T01:16:00.605Z,84.67
2022-11-06T01:19:03.942Z,84.67
2022-11-06T01:22:06.345Z,84.95
2022-11-06T01:25:09.023Z,84.76
2022-11-06T01:28:11.616Z,84.96
2022-11-06T01:31:17.658Z,85.10
2022-11-06T01:34:19.991Z,84.94
2022-11-06T01:37:22.519Z,84.96
2022-11-06T01:40:25.059Z,84.62
2022-11-06T01:43:56.406Z,84.47
2022-11-06T01:46:59.334Z,84.69
2022-11-06T01:50:06.809Z,84.96
2022-11-06T01:53:09.280Z,84.91
2022-11-06T01:56:12.470Z,85.27
2022-11-06T01:59:17.018Z,85.37
2022-11-06T02:02:19.920Z,85.03
2022-11-06T02:05:23.046Z,85.17
2022-11-06T02:08:25.523Z,85.24
2022-11-06T02:11:28.276Z,85.91
2022-11-06T02:14:43.040Z,85.60
2022-11-06T02:18:30.478Z,85.48
2022-11-06T02:21:58.818Z,85.90
2022-11-06T02:25:16.178Z,85.84
2022-11-06T02:28:43.019Z,86.08
2022-11-06T02:31:45.896Z,85.88
2022-11-06T02:34:49.615Z,85.48
2022-11-06T02:37:58.142Z,84.44
2022-11-06T02:41:05.210Z,84.12
2022-11-06T02:44:10.055Z,84.10
2022-11-06T02:47:13.599Z,83.94
2022-11-06T02:50:26.112Z,84.33
2022-11-06T02:53:30.818Z,84.05
2022-11-06T02:56:36.839Z,83.96
2022-11-06T02:59:50.499Z,83.77
2022-11-06T03:03:02.044Z,83.74
2022-11-06T03:06:08.047Z,84.07
2022-11-06T03:09:20.377Z,84.00
2022-11-06T03:12:29.747Z,83.48
2022-11-06T03:16:18.704Z,83.94
2022-11-06T03:19:27.645Z,83.60
2022-11-06T03:22:35.940Z,83.69
2022-11-06T03:25:45.227Z,83.48
2022-11-06T03:29:06.044Z,83.54
2022-11-06T03:32:15.568Z,83.77
2022-11-06T03:35:39.106Z,84.28
2022-11-06T03:38:45.047Z,83.85
2022-11-06T03:42:03.206Z,83.78
2022-11-06T03:45:25.853Z,84.36
2022-11-06T03:48:43.977Z,84.20
2022-11-06T03:51:56.926Z,84.46
2022-11-06T03:55:23.472Z,84.55
2022-11-06T03:58:30.366Z,85.79
2022-11-06T04:01:36.421Z,85.38
2022-11-06T04:04:48.235Z,85.15
2022-11-06T04:08:13.395Z,85.44
2022-11-06T04:11:37.306Z,85.16
2022-11-06T04:14:42.605Z,84.83
2022-11-06T04:17:45.073Z,85.01
2022-11-06T04:21:21.605Z,85.20
2022-11-06T04:25:03.540Z,85.45
2022-11-06T04:28:46.855Z,84.82
2022-11-06T04:32:08.072Z,84.81
2022-11-06T04:35:18.097Z,84.62
2022-11-06T04:38:37.354Z,84.55
2022-11-06T04:41:50.267Z,84.12
2022-11-06T04:44:58.246Z,84.30
2022-11-06T04:48:01.049Z,84.30
2022-11-06T04:51:06.556Z,84.60
2022-11-06T04:54:10.244Z,84.50
2022-11-06T04:57:12.764Z,84.29
2022-11-06T05:00:15.925Z,84.18
2022-11-06T05:03:18.882Z,84.04
2022-11-06T05:06:23.540Z,84.04
2022-11-06T05:09:29.724Z,84.32
2022-11-06T05:12:32.063Z,83.85
2022-11-06T05:15:34.490Z,84.03
2022-11-06T05:18:36.847Z,83.35
2022-11-06T05:21:57.462Z,83.65
2022-11-06T05:24:59.878Z,83.18
2022-11-06T05:28:05.795Z,83.22
2022-11-06T05:31:08.138Z,82.96
2022-11-06T05:34:10.680Z,82.01
2022-11-06T05:37:13.037Z,82.50
2022-11-06T05:40:17.218Z,82.66
2022-11-06T05:43:19.578Z,82.35
2022-11-06T05:46:47.013Z,82.49
2022-11-06T05:49:44.407Z,82.65
2022-11-06T05:52:46.783Z,81.83
2022-11-06T05:55:49.115Z,82.06
2022-11-06T05:58:51.584Z,81.72
2022-11-06T06:01:54.024Z,82.00
2022-11-06T06:04:56.509Z,82.06
2022-11-06T06:07:58.948Z,81.56
2022-11-06T06:11:06.504Z,82.16
2022-11-06T06:14:08.879Z,81.42
2022-11-06T06:17:11.218Z,81.92
2022-11-06T06:20:19.314Z,81.49
2022-11-06T06:23:21.709Z,81.63
2022-11-06T06:26:24.154Z,82.05
2022-11-06T06:29:26.472Z,81.67
2022-11-06T06:32:28.852Z,82.65
2022-11-06T06:35:31.275Z,82.58
2022-11-06T06:38:33.833Z,82.46
2022-11-06T06:41:36.679Z,81.89
2022-11-06T06:44:39.314Z,81.76
2022-11-06T06:47:41.901Z,82.15
2022-11-06T06:50:44.356Z,82.64
2022-11-06T06:53:46.680Z,82.25
2022-11-06T06:56:49.040Z,81.47
2022-11-06T06:59:51.439Z,81.84
2022-11-06T07:02:54.117Z,82.52
2022-11-06T07:05:59.389Z,82.23
2022-11-06T07:09:01.797Z,81.66
2022-11-06T07:12:04.470Z,80.69
2022-11-06T07:15:07.734Z,81.20
2022-11-06T07:18:10.229Z,81.01
2022-11-06T07:21:13.053Z,79.76
2022-11-06T07:24:18.072Z,79.77
2022-11-06T07:27:20.413Z,79.35
2022-11-06T07:30:25.886Z,78.65
2022-11-06T07:33:28.306Z,78.79
2022-11-06T07:36:32.762Z,78.20
2022-11-06T07:39:35.183Z,77.77
2022-11-06T07:42:43.127Z,77.64
2022-11-06T07:45:49.958Z,77.92
2022-11-06T07:48:52.510Z,77.38
2022-11-06T07:51:55.374Z,77.58
2022-11-06T07:54:57.736Z,77.14
2022-11-06T07:58:00.121Z,76.79
2022-11-06T08:01:03.225Z,75.60
2022-11-06T08:04:05.673Z,76.64
2022-11-06T08:07:08.021Z,76.96
2022-11-06T08:10:10.624Z,77.57
2022-11-06T08:13:16.583Z,77.80
2022-11-06T08:16:18.941Z,76.92
2022-11-06T08:19:21.771Z,77.03
2022-11-06T08:22:24.163Z,76.25
2022-11-06T08:25:27.207Z,74.41
2022-11-06T08:28:29.736Z,75.57
2022-11-06T08:31:32.128Z,75.96
2022-11-06T08:34:35.959Z,74.16
2022-11-06T08:37:38.354Z,72.64
2022-11-06T08:40:41.132Z,74.61
2022-11-06T08:43:43.484Z,73.77
2022-11-06T08:46:51.904Z,72.93
2022-11-06T08:49:56.065Z,73.75
2022-11-06T08:53:04.083Z,72.82
2022-11-06T08:56:06.781Z,71.34
2022-11-06T08:59:09.225Z,72.96
2022-11-06T09:02:12.997Z,72.73
2022-11-06T09:05:15.645Z,72.48
2022-11-06T09:08:18.064Z,71.92
2022-11-06T09:11:20.408Z,72.24
2022-11-06T09:14:22.786Z,72.16
2022-11-06T09:17:25.216Z,71.17
2022-11-06T09:20:27.677Z,71.58
2022-11-06T09:23:30.086Z,70.50
2022-11-06T09:26:32.521Z,71.07
2022-11-06T09:29:34.899Z,72.40
2022-11-06T09:32:37.426Z,70.09
2022-11-06T09:35:39.986Z,70.71
2022-11-06T09:38:42.417Z,69.65
2022-11-06T09:42:08.172Z,69.68
2022-11-06T09:45:17.746Z,69.69
2022-11-06T09:48:34.972Z,70.24
2022-11-06T09:52:10.939Z,70.77
2022-11-06T09:55:20.616Z,70.47
2022-11-06T09:58:43.778Z,69.18
2022-11-06T10:01:49.653Z,69.63
2022-11-06T10:05:05.879Z,70.48
2022-11-06T10:08:22.156Z,69.61
2022-11-06T10:11:35.125Z,69.68
2022-11-06T10:14:49.806Z,69.02
2022-11-06T10:18:03.867Z,69.20
2022-11-06T10:21:22.997Z,68.85
2022-11-06T10:24:45.139Z,69.69
2022-11-06T10:28:26.285Z,68.87
2022-11-06T10:31:44.176Z,68.47
2022-11-06T10:35:15.848Z,70.08
2022-11-06T10:38:39.208Z,68.80
2022-11-06T10:41:44.001Z,69.00
2022-11-06T10:44:49.275Z,69.27
2022-11-06T10:47:55.530Z,68.88
2022-11-06T10:51:12.754Z,67.96
2022-11-06T10:54:15.155Z,68.46
2022-11-06T10:57:43.452Z,69.39
2022-11-06T11:00:46.064Z,69.02
2022-11-06T11:03:49.569Z,70.46
2022-11-06T11:06:51.925Z,70.20
2022-11-06T11:09:54.455Z,70.34
2022-11-06T11:13:00.769Z,69.53
2022-11-06T11:16:05.692Z,70.54
2022-11-06T11:19:33.360Z,70.27
2022-11-06T11:22:35.965Z,70.29
2022-11-06T11:25:38.504Z,69.46
2022-11-06T11:28:41.107Z,70.51
2022-11-06T11:31:47.006Z,70.28
2022-11-06T11:34:56.432Z,70.44
2022-11-06T11:38:14.123Z,69.08
2022-11-06T11:41:19.795Z,68.29
2022-11-06T11:44:22.289Z,68.20
2022-11-06T11:47:24.797Z,65.78
2022-11-06T11:50:32.150Z,67.92
2022-11-06T11:53:34.527Z,66.71
2022-11-06T11:57:06.354Z,67.36
2022-11-06T12:00:20.107Z,67.06
2022-11-06T12:03:36.486Z,67.28
2022-11-06T12:07:01.802Z,66.12
2022-11-06T12:10:32.915Z,66.35
2022-11-06T12:13:35.502Z,65.77
2022-11-06T12:16:37.952Z,67.67
2022-11-06T12:19:43.939Z,66.66
2022-11-06T12:22:47.839Z,66.63
2022-11-06T12:26:00.014Z,64.16
2022-11-06T12:29:15.352Z,63.74
2022-11-06T12:32:20.930Z,65.38
2022-11-06T12:35:38.273Z,67.87
2022-11-06T12:39:10.984Z,68.75
2022-11-06T12:42:13.696Z,69.14
2022-11-06T12:45:16.566Z,67.66
2022-11-06T12:48:37.424Z,68.36
2022-11-06T12:51:53.521Z,70.35
2022-11-06T12:55:16.101Z,70.52
2022-11-06T12:58:28.268Z,70.29
2022-11-06T13:01:42.813Z,70.11
2022-11-06T13:05:27.070Z,71.93
2022-11-06T13:08:39.069Z,72.27
2022-11-06T13:12:11.952Z,72.63
2022-11-06T13:15:32.339Z,73.39
2022-11-06T13:18:36.633Z,72.45
2022-11-06T13:22:01.497Z,72.70
2022-11-06T13:25:22.617Z,73.15
2022-11-06T13:28:43.876Z,72.54
2022-11-06T13:32:14.616Z,73.51
2022-11-06T13:35:18.846Z,72.00
2022-11-06T13:38:28.847Z,72.80
2022-11-06T13:41:32.315Z,73.40
2022-11-06T13:44:35.440Z,74.02
2022-11-06T13:47:52.143Z,72.77
2022-11-06T13:51:08.038Z,73.49
2022-11-06T13:54:27.232Z,73.36
2022-11-06T13:58:11.215Z,73.80
2022-11-06T14:01:29.471Z,73.31
2022-11-06T14:04:40.927Z,73.79
2022-11-06T14:07:43.903Z,74.15
2022-11-06T14:11:12.876Z,74.39
2022-11-06T14:14:21.558Z,74.79
2022-11-06T14:17:24.776Z,74.93
2022-11-06T14:20:28.914Z,75.19
2022-11-06T14:23:31.234Z,73.24
2022-11-06T14:26:47.448Z,74.01
2022-11-06T14:29:59.954Z,74.80
2022-11-06T14:33:02.358Z,74.68
2022-11-06T14:36:34.158Z,75.09
2022-11-06T14:39:55.882Z,74.91
2022-11-06T14:42:58.434Z,74.95
2022-11-06T14:46:06.606Z,75.56
2022-11-06T14:49:42.057Z,75.31
2022-11-06T14:52:51.852Z,75.28
2022-11-06T14:56:05.955Z,75.96
2022-11-06T14:59:33.247Z,75.88
2022-11-06T15:02:37.386Z,75.90
2022-11-06T15:05:42.587Z,76.29
2022-11-06T15:08:45.279Z,76.14
2022-11-06T15:12:00.786Z,76.29
2022-11-06T15:15:09.369Z,76.73
2022-11-06T15:18:15.117Z,77.05
2022-11-06T15:21:30.615Z,77.51
2022-11-06T15:24:41.003Z,77.56
2022-11-06T15:27:47.885Z,78.00
2022-11-06T15:31:05.832Z,78.05
2022-11-06T15:34:29.257Z,78.29
2022-11-06T15:37:36.001Z,78.79
2022-11-06T15:40:39.553Z,78.52
2022-11-06T15:43:44.713Z,78.81
2022-11-06T15:46:58.251Z,79.11
2022-11-06T15:50:18.422Z,80.03
2022-11-06T15:53:23.120Z,80.26
2022-11-06T15:56:31.550Z,80.24
2022-11-06T15:59:34.135Z,80.63
2022-11-06T16:02:59.353Z,80.54
2022-11-06T16:06:03.132Z,80.31
2022-11-06T16:09:09.175Z,80.39
2022-11-06T16:12:13.332Z,79.93
2022-11-06T16:15:47.311Z,80.12
2022-11-06T16:18:49.855Z,80.26
2022-11-06T16:22:01.179Z,80.02
2022-11-06T16:25:06.138Z,80.51
2022-11-06T16:28:20.291Z,80.49
2022-11-06T16:31:24.916Z,80.29
2022-11-06T16:34:39.876Z,80.65
2022-11-06T16:37:42.940Z,81.72
2022-11-06T16:40:50.324Z,82.41
2022-11-06T16:44:39.022Z,82.97
2022-11-06T16:47:41.491Z,82.44
2022-11-06T16:50:53.274Z,81.15
2022-11-06T16:53:56.561Z,81.52
2022-11-06T16:57:12.746Z,83.01
2022-11-06T17:00:21.390Z,83.33
2022-11-06T17:03:24.250Z,84.16
2022-11-06T17:06:35.506Z,84.14
2022-11-06T17:09:38.602Z,84.17
2022-11-06T17:12:41.244Z,84.36
2022-11-06T17:15:47.252Z,84.46
2022-11-06T17:18:50.631Z,84.54
2022-11-06T17:21:53.279Z,84.56
2022-11-06T17:24:56.114Z,85.05
2022-11-06T17:27:58.914Z,85.17
2022-11-06T17:31:01.299Z,84.59
2022-11-06T17:34:04.091Z,85.77
2022-11-06T17:37:06.757Z,84.37
2022-11-06T17:40:10.119Z,82.71
2022-11-06T17:43:12.887Z,82.62
2022-11-06T17:46:16.969Z,82.22
2022-11-06T17:49:19.624Z,82.15
2022-11-06T17:52:22.211Z,82.46
2022-11-06T17:55:24.946Z,83.03
2022-11-06T17:58:27.582Z,83.81
2022-11-06T18:01:30.318Z,83.36
2022-11-06T18:04:34.426Z,84.40
2022-11-06T18:07:37.158Z,84.11
2022-11-06T18:10:40.595Z,83.90
2022-11-06T18:13:45.323Z,84.66
2022-11-06T18:16:48.453Z,84.98
2022-11-06T18:19:51.827Z,85.44
2022-11-06T18:22:54.466Z,86.35
2022-11-06T18:25:57.748Z,86.01
2022-11-06T18:29:00.351Z,86.12
2022-11-06T18:32:03.118Z,86.77
2022-11-06T18:35:06.502Z,86.21
2022-11-06T18:38:09.959Z,86.52
2022-11-06T18:41:18.831Z,87.57
2022-11-06T18:44:21.284Z,87.34
2022-11-06T18:47:24.486Z,85.71
2022-11-06T18:50:28.159Z,85.03
2022-11-06T18:53:31.615Z,85.28
2022-11-06T18:56:36.251Z,85.36
2022-11-06T18:59:39.233Z,84.99
2022-11-06T19:02:42.172Z,85.82
2022-11-06T19:05:49.228Z,87.11
2022-11-06T19:08:51.865Z,86.27
2022-11-06T19:11:54.706Z,85.86
2022-11-06T19:14:57.396Z,86.31
2022-11-06T19:18:01.045Z,87.28
2022-11-06T19:21:05.642Z,87.56
2022-11-06T19:24:08.367Z,88.61
2022-11-06T19:27:11.023Z,88.49
2022-11-06T19:30:14.485Z,88.60
2022-11-06T19:33:17.199Z,88.53
2022-11-06T19:36:21.886Z,89.17
2022-11-06T19:39:24.846Z,89.26
2022-11-06T19:42:27.483Z,89.89
2022-11-06T19:45:30.164Z,88.06
2022-11-06T19:48:32.989Z,87.25
2022-11-06T19:51:37.577Z,87.96
2022-11-06T19:54:40.490Z,89.11
2022-11-06T19:57:43.187Z,89.96
2022-11-06T20:00:47.991Z,90.33
2022-11-06T20:03:50.646Z,90.69
2022-11-06T20:06:53.646Z,90.87
2022-11-06T20:10:02.019Z,90.07
2022-11-06T20:13:05.198Z,90.20
2022-11-06T20:16:16.722Z,91.35
2022-11-06T20:19:19.415Z,91.48
2022-11-06T20:22:22.112Z,91.28
2022-11-06T20:25:24.731Z,90.04
2022-11-06T20:28:28.861Z,89.90
2022-11-06T20:31:32.077Z,90.10
2022-11-06T20:34:34.963Z,89.71
2022-11-06T20:37:37.693Z,90.11
2022-11-06T20:40:41.456Z,89.87
2022-11-06T20:43:44.346Z,90.03
2022-11-06T20:46:47.960Z,89.54
2022-11-06T20:49:52.673Z,89.37
2022-11-06T20:52:55.004Z,90.44
2022-11-06T20:56:03.046Z,90.72
2022-11-06T20:59:07.059Z,90.10
2022-11-06T21:02:11.309Z,90.58
2022-11-06T21:05:17.069Z,90.32
2022-11-06T21:08:19.707Z,90.43
2022-11-06T21:11:27.369Z,91.21
2022-11-06T21:14:30.242Z,90.18
2022-11-06T21:17:33.017Z,89.90
2022-11-06T21:20:37.799Z,89.79
2022-11-06T21:23:40.982Z,90.68
2022-11-06T21:26:43.650Z,91.47
2022-11-06T21:29:46.095Z,91.63
2022-11-06T21:32:48.779Z,91.93
2022-11-06T21:35:51.551Z,92.06
2022-11-06T21:38:55.143Z,91.05
2022-11-06T21:41:57.682Z,90.39
2022-11-06T21:45:00.083Z,90.48
2022-11-06T21:48:05.588Z,91.08
2022-11-06T21:51:21.663Z,91.79
2022-11-06T21:54:42.705Z,91.57
2022-11-06T21:57:45.069Z,91.68
2022-11-06T22:00:48.235Z,91.69
2022-11-06T22:03:51.584Z,91.49
2022-11-06T22:06:53.952Z,90.39
2022-11-06T22:09:56.460Z,91.24
2022-11-06T22:12:58.827Z,90.10
2022-11-06T22:16:01.583Z,90.30
2022-11-06T22:19:06.776Z,90.08
2022-11-06T22:22:09.257Z,90.15
2022-11-06T22:25:12.123Z,90.39
2022-11-06T22:28:14.550Z,90.56
2022-11-06T22:31:16.906Z,90.88
2022-11-06T22:34:19.467Z,90.88
2022-11-06T22:37:21.895Z,91.40
2022-11-06T22:40:24.297Z,91.54
2022-11-06T22:43:27.252Z,92.19
2022-11-06T22:46:30.225Z,91.90
2022-11-06T22:49:33.428Z,91.81
2022-11-06T22:52:35.790Z,91.48
2022-11-06T22:55:38.268Z,91.07
2022-11-06T22:58:41.019Z,91.99
2022-11-06T23:01:43.812Z,91.99
2022-11-06T23:04:46.244Z,91.01
2022-11-06T23:07:48.669Z,91.92
2022-11-06T23:10:51.061Z,90.79
2022-11-06T23:13:54.376Z,92.73
2022-11-06T23:17:04.266Z,92.88
2022-11-06T23:20:07.628Z,91.80
2022-11-06T23:23:10.039Z,92.31
2022-11-06T23:26:16.407Z,91.95
2022-11-06T23:29:18.794Z,91.54
2022-11-06T23:32:21.599Z,91.74
2022-11-06T23:35:28.054Z,91.95
2022-11-06T23:38:34.596Z,92.94
2022-11-06T23:41:46.336Z,91.60
2022-11-06T23:45:07.735Z,91.42
2022-11-06T23:48:13.944Z,92.41
2022-11-06T23:51:16.776Z,92.23
2022-11-06T23:54:19.173Z,92.27
2022-11-06T23:57:21.690Z,92.54
